createdAt,value
2023-03-06T00:00:06.083Z,95.43
2023-03-06T00:01:06.065Z,95.43
2023-03-06T00:02:06.061Z,95.54
2023-03-06T00:03:06.053Z,95.33
2023-03-06T00:04:06.108Z,95.43
2023-03-06T00:05:06.022Z,95.23
2023-03-06T00:06:06.106Z,95.07
2023-03-06T00:07:06.033Z,95.01
2023-03-06T00:08:06.017Z,95.12
2023-03-06T00:09:05.997Z,95.18
2023-03-06T00:10:06.018Z,95.39
2023-03-06T00:11:06.075Z,95.29
2023-03-06T00:12:05.966Z,94.97
2023-03-06T00:13:05.947Z,94.76
2023-03-06T00:14:05.960Z,94.87
2023-03-06T00:15:06.000Z,94.97
2023-03-06T00:16:06.000Z,95.07
2023-03-06T00:17:05.916Z,94.97
2023-03-06T00:18:05.928Z,94.87
2023-03-06T00:19:05.898Z,94.91
2023-03-06T00:20:05.889Z,94.97
2023-03-06T00:21:05.874Z,95.29
2023-03-06T00:22:05.866Z,95.39
2023-03-06T00:23:05.856Z,95.50
2023-03-06T00:24:05.847Z,95.39
2023-03-06T00:25:05.849Z,95.29
2023-03-06T00:26:05.837Z,95.07
2023-03-06T00:27:05.809Z,95.07
2023-03-06T00:28:05.838Z,94.76
2023-03-06T00:29:05.788Z,94.66
2023-03-06T00:30:06.027Z,94.56
2023-03-06T00:31:05.823Z,94.45
2023-03-06T00:32:05.800Z,94.45
2023-03-06T00:33:05.747Z,94.45
2023-03-06T00:34:05.891Z,94.45
2023-03-06T00:35:05.744Z,94.87
2023-03-06T00:36:05.746Z,95.07
2023-03-06T00:37:05.715Z,95.39
2023-03-06T00:38:05.707Z,95.18
2023-03-06T00:39:05.819Z,94.97
2023-03-06T00:40:05.721Z,95.07
2023-03-06T00:41:05.669Z,95.18
2023-03-06T00:42:05.669Z,94.97
2023-03-06T00:43:05.658Z,94.66
2023-03-06T00:44:05.725Z,94.62
2023-03-06T00:45:05.627Z,94.40
2023-03-06T00:46:05.747Z,94.09
2023-03-06T00:47:05.979Z,94.20
2023-03-06T00:48:05.610Z,94.30
2023-03-06T00:49:05.606Z,93.99
2023-03-06T00:50:05.607Z,94.09
2023-03-06T00:51:05.570Z,94.20
2023-03-06T00:52:05.579Z,94.09
2023-03-06T00:53:05.562Z,93.88
2023-03-06T00:54:05.679Z,93.78
2023-03-06T00:55:05.531Z,93.78
2023-03-06T00:56:05.550Z,93.67
2023-03-06T00:57:05.509Z,93.67
2023-03-06T00:58:05.509Z,93.99
2023-03-06T00:59:05.487Z,94.09
2023-03-06T01:00:05.538Z,93.88
2023-03-06T01:01:05.559Z,93.78
2023-03-06T01:02:05.482Z,93.78
2023-03-06T01:03:05.457Z,93.67
2023-03-06T01:04:05.465Z,93.78
2023-03-06T01:05:05.443Z,93.99
2023-03-06T01:06:05.433Z,94.09
2023-03-06T01:07:05.408Z,94.05
2023-03-06T01:08:05.420Z,94.09
2023-03-06T01:09:05.393Z,94.09
2023-03-06T01:10:05.388Z,94.20
2023-03-06T01:11:05.364Z,94.62
2023-03-06T01:12:05.361Z,94.72
2023-03-06T01:13:05.348Z,94.93
2023-03-06T01:14:05.339Z,95.03
2023-03-06T01:15:05.374Z,95.03
2023-03-06T01:16:05.350Z,94.93
2023-03-06T01:17:05.317Z,94.82
2023-03-06T01:18:05.297Z,94.62
2023-03-06T01:19:05.299Z,94.51
2023-03-06T01:20:05.288Z,94.30
2023-03-06T01:21:05.288Z,94.15
2023-03-06T01:22:05.262Z,93.74
2023-03-06T01:23:05.273Z,93.52
2023-03-06T01:24:05.237Z,93.52
2023-03-06T01:25:05.243Z,93.32
2023-03-06T01:26:05.226Z,93.21
2023-03-06T01:27:05.245Z,93.32
2023-03-06T01:28:05.201Z,93.42
2023-03-06T01:29:05.195Z,93.42
2023-03-06T01:30:05.177Z,93.74
2023-03-06T01:31:05.188Z,93.88
2023-03-06T01:32:05.288Z,93.88
2023-03-06T01:33:05.168Z,94.09
2023-03-06T01:34:05.140Z,94.40
2023-03-06T01:35:05.138Z,94.62
2023-03-06T01:36:05.119Z,94.82
2023-03-06T01:37:05.120Z,94.87
2023-03-06T01:38:05.101Z,94.76
2023-03-06T01:39:05.121Z,94.76
2023-03-06T01:40:05.081Z,94.87
2023-03-06T01:41:05.085Z,94.97
2023-03-06T01:42:05.063Z,95.01
2023-03-06T01:43:05.074Z,95.23
2023-03-06T01:44:05.045Z,95.43
2023-03-06T01:45:05.051Z,95.68
2023-03-06T01:46:05.152Z,95.58
2023-03-06T01:47:05.060Z,95.79
2023-03-06T01:48:05.005Z,95.90
2023-03-06T01:49:05.020Z,96.00
2023-03-06T01:50:05.000Z,96.15
2023-03-06T01:51:04.996Z,96.25
2023-03-06T01:52:04.976Z,96.67
2023-03-06T01:53:04.977Z,96.78
2023-03-06T01:54:04.948Z,96.67
2023-03-06T01:55:04.949Z,96.67
2023-03-06T01:56:04.938Z,96.57
2023-03-06T01:57:04.929Z,96.72
2023-03-06T01:58:04.908Z,96.83
2023-03-06T01:59:04.908Z,96.93
2023-03-06T02:00:04.901Z,97.18
2023-03-06T02:01:04.941Z,97.50
2023-03-06T02:02:04.919Z,97.92
2023-03-06T02:03:04.867Z,98.23
2023-03-06T02:04:04.850Z,98.44
2023-03-06T02:05:04.849Z,98.65
2023-03-06T02:06:04.830Z,98.65
2023-03-06T02:07:04.845Z,98.65
2023-03-06T02:08:04.806Z,98.75
2023-03-06T02:09:04.813Z,98.91
2023-03-06T02:10:04.791Z,98.91
2023-03-06T02:11:04.791Z,99.22
2023-03-06T02:12:04.774Z,99.33
2023-03-06T02:13:04.884Z,99.54
2023-03-06T02:14:04.767Z,99.74
2023-03-06T02:15:04.756Z,99.85
2023-03-06T02:16:04.745Z,99.99
2023-03-06T02:17:04.727Z,99.99
2023-03-06T02:18:04.714Z,99.99
2023-03-06T02:19:04.709Z,99.99
2023-03-06T02:20:04.720Z,99.99
2023-03-06T02:21:04.697Z,99.99
2023-03-06T02:22:04.679Z,99.99
2023-03-06T02:23:04.673Z,99.99
2023-03-06T02:24:04.656Z,99.99
2023-03-06T02:25:04.725Z,99.99
2023-03-06T02:26:04.636Z,99.99
2023-03-06T02:27:04.634Z,99.99
2023-03-06T02:28:04.615Z,99.99
2023-03-06T02:29:04.631Z,99.99
2023-03-06T02:30:04.600Z,99.99
2023-03-06T02:31:04.671Z,99.99
2023-03-06T02:32:04.661Z,99.99
2023-03-06T02:33:04.576Z,99.99
2023-03-06T02:34:04.575Z,99.99
2023-03-06T02:35:04.544Z,99.99
2023-03-06T02:36:04.545Z,99.99
2023-03-06T02:37:04.533Z,99.99
2023-03-06T02:38:04.562Z,99.99
2023-03-06T02:39:04.509Z,99.99
2023-03-06T02:40:04.502Z,99.99
2023-03-06T02:41:04.490Z,99.99
2023-03-06T02:42:04.477Z,99.99
2023-03-06T02:43:04.478Z,99.99
2023-03-06T02:44:04.446Z,99.99
2023-03-06T02:45:04.464Z,99.99
2023-03-06T02:46:04.552Z,99.99
2023-03-06T02:47:04.438Z,99.99
2023-03-06T02:48:04.417Z,99.99
2023-03-06T02:49:04.407Z,99.99
2023-03-06T02:50:04.384Z,99.99
2023-03-06T02:51:04.387Z,99.99
2023-03-06T02:52:04.376Z,99.99
2023-03-06T02:53:04.366Z,99.99
2023-03-06T02:54:04.346Z,99.99
2023-03-06T02:55:04.347Z,99.99
2023-03-06T02:56:04.332Z,99.99
2023-03-06T02:57:04.340Z,99.99
2023-03-06T02:58:04.308Z,99.99
2023-03-06T02:59:04.305Z,99.99
2023-03-06T03:00:04.287Z,99.99
2023-03-06T03:01:04.286Z,99.99
2023-03-06T03:02:04.264Z,99.99
2023-03-06T03:03:04.266Z,99.99
2023-03-06T03:04:04.243Z,99.99
2023-03-06T03:05:04.235Z,99.99
2023-03-06T03:06:04.223Z,99.99
2023-03-06T03:07:04.236Z,99.99
2023-03-06T03:08:04.197Z,99.99
2023-03-06T03:09:04.212Z,99.99
2023-03-06T03:10:04.185Z,99.99
2023-03-06T03:11:04.194Z,99.99
2023-03-06T03:12:04.174Z,99.99
2023-03-06T03:13:04.168Z,99.99
2023-03-06T03:14:04.138Z,99.99
2023-03-06T03:15:04.151Z,99.99
2023-03-06T03:16:04.192Z,99.99
2023-03-06T03:17:04.115Z,99.99
2023-03-06T03:18:04.106Z,99.99
2023-03-06T03:19:04.098Z,99.99
2023-03-06T03:20:04.084Z,99.99
2023-03-06T03:21:04.085Z,99.99
2023-03-06T03:22:04.060Z,99.99
2023-03-06T03:23:04.071Z,99.99
2023-03-06T03:24:04.039Z,99.99
2023-03-06T03:25:04.062Z,99.99
2023-03-06T03:26:04.028Z,99.99
2023-03-06T03:27:04.037Z,99.99
2023-03-06T03:28:04.020Z,99.99
2023-03-06T03:29:04.001Z,99.99
2023-03-06T03:30:03.984Z,99.99
2023-03-06T03:31:04.045Z,99.99
2023-03-06T03:32:03.968Z,99.99
2023-03-06T03:33:04.001Z,99.99
2023-03-06T03:34:03.943Z,99.99
2023-03-06T03:35:03.953Z,99.99
2023-03-06T03:36:03.923Z,99.99
2023-03-06T03:37:03.933Z,99.99
2023-03-06T03:38:03.906Z,99.99
2023-03-06T03:39:04.126Z,99.99
2023-03-06T03:40:03.889Z,99.99
2023-03-06T03:41:03.893Z,99.99
2023-03-06T03:42:03.865Z,99.99
2023-03-06T03:43:03.865Z,99.99
2023-03-06T03:44:03.884Z,99.99
2023-03-06T03:45:03.845Z,99.99
2023-03-06T03:46:03.887Z,99.99
2023-03-06T03:47:03.819Z,99.99
2023-03-06T03:48:04.627Z,99.99
2023-03-06T03:49:03.813Z,99.99
2023-03-06T03:50:03.786Z,99.99
2023-03-06T03:51:03.788Z,99.99
2023-03-06T03:52:03.795Z,99.99
2023-03-06T03:53:03.757Z,99.99
2023-03-06T03:54:03.746Z,99.99
2023-03-06T03:55:03.755Z,99.99
2023-03-06T03:56:03.734Z,99.99
2023-03-06T03:57:03.736Z,99.99
2023-03-06T03:58:03.740Z,99.99
2023-03-06T03:59:03.716Z,99.99
2023-03-06T04:00:03.695Z,99.99
2023-03-06T04:01:03.678Z,99.99
2023-03-06T04:02:03.801Z,99.99
2023-03-06T04:03:03.655Z,99.99
2023-03-06T04:04:03.736Z,99.99
2023-03-06T04:05:03.715Z,99.99
2023-03-06T04:06:03.625Z,99.99
2023-03-06T04:07:03.627Z,99.99
2023-03-06T04:08:03.603Z,99.99
2023-03-06T04:09:03.610Z,99.99
2023-03-06T04:10:03.598Z,99.99
2023-03-06T04:11:03.587Z,99.99
2023-03-06T04:12:03.566Z,99.99
2023-03-06T04:13:03.563Z,99.99
2023-03-06T04:14:03.538Z,99.99
2023-03-06T04:15:03.537Z,99.99
2023-03-06T04:16:03.576Z,99.99
2023-03-06T04:17:03.553Z,99.99
2023-03-06T04:18:03.509Z,99.99
2023-03-06T04:19:03.496Z,99.99
2023-03-06T04:20:03.477Z,99.99
2023-03-06T04:21:03.477Z,99.99
2023-03-06T04:22:03.457Z,99.99
2023-03-06T04:23:03.488Z,99.99
2023-03-06T04:24:03.455Z,99.99
2023-03-06T04:25:03.438Z,99.99
2023-03-06T04:26:03.426Z,99.99
2023-03-06T04:27:03.435Z,99.99
2023-03-06T04:28:03.397Z,99.99
2023-03-06T04:29:03.409Z,99.99
2023-03-06T04:30:03.385Z,99.99
2023-03-06T04:31:03.440Z,99.99
2023-03-06T04:32:03.404Z,99.99
2023-03-06T04:33:03.360Z,99.99
2023-03-06T04:34:03.364Z,99.99
2023-03-06T04:35:03.363Z,99.99
2023-03-06T04:36:03.326Z,99.99
2023-03-06T04:37:03.323Z,99.99
2023-03-06T04:38:03.299Z,99.99
2023-03-06T04:39:03.358Z,99.99
2023-03-06T04:40:03.312Z,99.99
2023-03-06T04:41:03.281Z,99.99
2023-03-06T04:42:03.285Z,99.99
2023-03-06T04:43:03.264Z,99.99
2023-03-06T04:44:03.274Z,99.99
2023-03-06T04:45:03.240Z,99.99
2023-03-06T04:46:03.267Z,99.99
2023-03-06T04:47:03.225Z,99.99
2023-03-06T04:48:03.203Z,99.99
2023-03-06T04:49:03.256Z,99.99
2023-03-06T04:50:03.180Z,99.99
2023-03-06T04:51:03.194Z,99.99
2023-03-06T04:52:03.365Z,99.99
2023-03-06T04:53:03.165Z,99.99
2023-03-06T04:54:03.165Z,99.99
2023-03-06T04:55:03.137Z,99.99
2023-03-06T04:56:03.166Z,99.99
2023-03-06T04:57:03.126Z,99.99
2023-03-06T04:58:03.115Z,99.99
2023-03-06T04:59:03.109Z,99.99
2023-03-06T05:00:03.087Z,99.99
2023-03-06T05:01:03.157Z,99.99
2023-03-06T05:02:03.155Z,99.99
2023-03-06T05:03:03.064Z,99.99
2023-03-06T05:04:03.036Z,99.99
2023-03-06T05:05:03.048Z,99.99
2023-03-06T05:06:03.025Z,99.99
2023-03-06T05:07:03.029Z,99.99
2023-03-06T05:08:03.015Z,99.99
2023-03-06T05:09:02.996Z,99.99
2023-03-06T05:10:02.986Z,99.99
2023-03-06T05:11:02.962Z,99.99
2023-03-06T05:12:02.964Z,99.99
2023-03-06T05:13:02.957Z,99.99
2023-03-06T05:14:02.976Z,99.99
2023-03-06T05:15:02.949Z,99.99
2023-03-06T05:16:02.923Z,99.99
2023-03-06T05:17:02.923Z,99.99
2023-03-06T05:18:02.904Z,99.99
2023-03-06T05:19:02.895Z,99.99
2023-03-06T05:20:02.874Z,99.99
2023-03-06T05:21:02.874Z,99.99
2023-03-06T05:22:02.865Z,99.99
2023-03-06T05:23:02.851Z,99.99
2023-03-06T05:24:02.837Z,99.99
2023-03-06T05:25:02.833Z,99.99
2023-03-06T05:26:02.818Z,99.99
2023-03-06T05:27:02.820Z,99.99
2023-03-06T05:28:02.806Z,99.99
2023-03-06T05:29:02.809Z,99.99
2023-03-06T05:30:02.770Z,99.99
2023-03-06T05:31:03.548Z,99.99
2023-03-06T05:32:02.893Z,99.99
2023-03-06T05:33:02.762Z,99.99
2023-03-06T05:34:02.735Z,99.99
2023-03-06T05:35:02.715Z,99.99
2023-03-06T05:36:02.739Z,99.99
2023-03-06T05:37:02.705Z,99.99
2023-03-06T05:38:02.700Z,99.99
2023-03-06T05:39:02.680Z,99.99
2023-03-06T05:40:02.678Z,99.99
2023-03-06T05:41:02.661Z,99.99
2023-03-06T05:42:02.660Z,99.99
2023-03-06T05:43:02.661Z,99.99
2023-03-06T05:44:03.438Z,99.99
2023-03-06T05:45:02.627Z,99.99
2023-03-06T05:46:02.890Z,99.99
2023-03-06T05:47:02.595Z,99.99
2023-03-06T05:48:03.403Z,99.99
2023-03-06T05:49:02.584Z,99.99
2023-03-06T05:50:02.591Z,99.99
2023-03-06T05:51:02.564Z,99.99
2023-03-06T05:52:02.583Z,99.99
2023-03-06T05:53:02.629Z,99.99
2023-03-06T05:54:02.567Z,99.99
2023-03-06T05:55:02.584Z,99.99
2023-03-06T05:56:02.684Z,99.99
2023-03-06T05:57:02.532Z,99.99
2023-03-06T05:58:02.503Z,99.99
2023-03-06T05:59:02.477Z,99.99
2023-03-06T06:00:02.491Z,99.99
2023-03-06T06:01:02.462Z,99.99
2023-03-06T06:02:02.501Z,99.99
2023-03-06T06:03:02.443Z,99.99
2023-03-06T06:04:03.212Z,99.99
2023-03-06T06:05:02.437Z,99.99
2023-03-06T06:06:02.430Z,99.99
2023-03-06T06:07:02.396Z,99.99
2023-03-06T06:08:02.406Z,99.99
2023-03-06T06:09:02.392Z,99.99
2023-03-06T06:10:03.770Z,99.99
2023-03-06T06:11:02.365Z,99.99
2023-03-06T06:12:02.356Z,99.99
2023-03-06T06:13:02.357Z,99.99
2023-03-06T06:14:02.335Z,99.99
2023-03-06T06:15:02.323Z,99.99
2023-03-06T06:16:02.366Z,99.99
2023-03-06T06:17:02.311Z,99.99
2023-03-06T06:18:02.309Z,99.99
2023-03-06T06:19:03.084Z,99.99
2023-03-06T06:20:02.490Z,99.99
2023-03-06T06:21:02.255Z,99.99
2023-03-06T06:22:02.254Z,99.99
2023-03-06T06:23:02.248Z,99.99
2023-03-06T06:24:02.245Z,99.99
2023-03-06T06:25:02.217Z,99.99
2023-03-06T06:26:02.216Z,99.99
2023-03-06T06:27:03.949Z,99.99
2023-03-06T06:28:02.205Z,99.99
2023-03-06T06:29:02.176Z,99.99
2023-03-06T06:30:02.180Z,99.99
2023-03-06T06:31:02.174Z,99.99
2023-03-06T06:32:02.351Z,99.99
2023-03-06T06:33:02.175Z,99.99
2023-03-06T06:34:02.168Z,99.99
2023-03-06T06:35:02.137Z,99.99
2023-03-06T06:36:02.152Z,99.99
2023-03-06T06:37:02.096Z,99.99
2023-03-06T06:38:02.910Z,99.99
2023-03-06T06:39:02.094Z,99.99
2023-03-06T06:40:02.087Z,99.99
2023-03-06T06:41:31.048Z,99.99
2023-03-06T06:42:28.188Z,99.99
2023-03-06T06:43:03.050Z,99.99
2023-03-06T06:44:02.041Z,99.99
2023-03-06T06:45:02.074Z,99.99
2023-03-06T06:46:21.104Z,99.99
2023-03-06T06:47:22.424Z,99.99
2023-03-06T06:48:03.036Z,99.99
2023-03-06T06:49:02.012Z,99.98
2023-03-06T06:50:02.022Z,99.88
2023-03-06T06:51:01.970Z,99.98
2023-03-06T06:52:01.961Z,99.98
2023-03-06T06:53:01.943Z,99.98
2023-03-06T06:54:01.952Z,99.77
2023-03-06T06:55:01.926Z,99.56
2023-03-06T06:56:02.731Z,99.62
2023-03-06T06:57:01.906Z,99.62
2023-03-06T06:58:01.921Z,99.52
2023-03-06T06:59:15.628Z,99.52
2023-03-06T07:00:02.930Z,99.31
2023-03-06T07:01:01.862Z,99.31
2023-03-06T07:02:01.851Z,99.31
2023-03-06T07:03:01.865Z,98.99
2023-03-06T07:04:02.156Z,98.47
2023-03-06T07:05:05.347Z,98.16
2023-03-06T07:06:01.823Z,98.01
2023-03-06T07:07:01.797Z,97.70
2023-03-06T07:08:01.823Z,97.07
2023-03-06T07:09:01.786Z,96.76
2023-03-06T07:10:01.809Z,96.55
2023-03-06T07:11:01.772Z,96.34
2023-03-06T07:12:01.774Z,96.09
2023-03-06T07:13:01.788Z,95.98
2023-03-06T07:14:01.777Z,96.19
2023-03-06T07:15:01.758Z,96.09
2023-03-06T07:16:01.764Z,96.09
2023-03-06T07:17:01.740Z,95.98
2023-03-06T07:18:01.706Z,95.88
2023-03-06T07:19:01.703Z,95.78
2023-03-06T07:20:01.690Z,95.36
2023-03-06T07:21:01.866Z,95.36
2023-03-06T07:22:01.662Z,95.25
2023-03-06T07:23:01.646Z,95.25
2023-03-06T07:24:01.672Z,95.04
2023-03-06T07:25:01.657Z,95.00
2023-03-06T07:26:02.456Z,94.90
2023-03-06T07:27:01.607Z,94.69
2023-03-06T07:28:01.700Z,94.37
2023-03-06T07:29:01.594Z,94.06
2023-03-06T07:30:01.582Z,93.96
2023-03-06T07:31:01.643Z,94.06
2023-03-06T07:32:01.681Z,94.17
2023-03-06T07:33:01.548Z,94.06
2023-03-06T07:34:04.516Z,94.06
2023-03-06T07:35:18.993Z,94.06
2023-03-06T07:36:02.581Z,94.17
2023-03-06T07:37:01.520Z,94.17
2023-03-06T07:38:01.501Z,93.85
2023-03-06T07:39:01.502Z,93.81
2023-03-06T07:40:01.534Z,94.02
2023-03-06T07:41:01.454Z,93.91
2023-03-06T07:42:01.493Z,93.71
2023-03-06T07:43:16.750Z,93.50
2023-03-06T07:44:02.435Z,93.29
2023-03-06T07:45:01.426Z,92.97
2023-03-06T07:46:01.414Z,93.08
2023-03-06T07:47:01.395Z,93.14
2023-03-06T07:48:01.405Z,93.04
2023-03-06T07:49:01.392Z,93.35
2023-03-06T07:50:01.384Z,93.24
2023-03-06T07:51:01.375Z,92.93
2023-03-06T07:52:01.360Z,92.93
2023-03-06T07:53:01.576Z,92.79
2023-03-06T07:54:01.337Z,92.99
2023-03-06T07:55:01.307Z,93.31
2023-03-06T07:56:01.334Z,92.79
2023-03-06T07:57:01.309Z,91.53
2023-03-06T07:58:01.288Z,90.70
2023-03-06T07:59:01.304Z,90.50
2023-03-06T08:00:01.280Z,90.04
2023-03-06T08:01:01.289Z,90.14
2023-03-06T08:02:01.282Z,91.18
2023-03-06T08:03:01.334Z,90.87
2023-03-06T08:04:01.327Z,90.35
2023-03-06T08:05:01.237Z,89.94
2023-03-06T08:06:01.309Z,89.83
2023-03-06T08:07:01.190Z,89.10
2023-03-06T08:08:01.196Z,89.20
2023-03-06T08:09:01.172Z,89.62
2023-03-06T08:10:01.176Z,89.73
2023-03-06T08:11:01.152Z,90.10
2023-03-06T08:12:01.162Z,89.17
2023-03-06T08:13:01.121Z,89.06
2023-03-06T08:14:01.322Z,89.06
2023-03-06T08:15:01.100Z,89.27
2023-03-06T08:16:01.133Z,88.64
2023-03-06T08:17:01.091Z,88.33
2023-03-06T08:18:01.088Z,87.71
2023-03-06T08:19:01.068Z,88.33
2023-03-06T08:20:01.068Z,88.43
2023-03-06T08:21:01.040Z,88.64
2023-03-06T08:22:01.040Z,88.64
2023-03-06T08:23:01.028Z,88.75
2023-03-06T08:24:01.047Z,88.54
2023-03-06T08:25:01.003Z,89.12
2023-03-06T08:26:01.010Z,87.77
2023-03-06T08:27:01.222Z,87.15
2023-03-06T08:28:01.016Z,87.46
2023-03-06T08:29:00.977Z,87.46
2023-03-06T08:30:00.964Z,86.94
2023-03-06T08:31:00.950Z,86.11
2023-03-06T08:32:00.989Z,86.27
2023-03-06T08:33:00.920Z,86.69
2023-03-06T08:34:00.908Z,87.32
2023-03-06T08:35:00.901Z,86.69
2023-03-06T08:36:02.398Z,87.32
2023-03-06T08:37:00.880Z,87.84
2023-03-06T08:38:00.873Z,88.04
2023-03-06T08:39:00.859Z,87.63
2023-03-06T08:40:00.851Z,88.04
2023-03-06T08:41:00.830Z,88.15
2023-03-06T08:42:00.851Z,87.73
2023-03-06T08:43:00.821Z,87.73
2023-03-06T08:44:00.824Z,86.80
2023-03-06T08:45:00.803Z,86.17
2023-03-06T08:46:00.890Z,85.82
2023-03-06T08:47:00.790Z,85.72
2023-03-06T08:48:00.763Z,85.61
2023-03-06T08:49:00.744Z,84.27
2023-03-06T08:50:01.027Z,84.68
2023-03-06T08:51:00.734Z,84.68
2023-03-06T08:52:00.723Z,85.20
2023-03-06T08:53:00.721Z,84.68
2023-03-06T08:54:00.716Z,83.33
2023-03-06T08:55:00.695Z,84.78
2023-03-06T08:56:00.691Z,84.16
2023-03-06T08:57:00.673Z,82.60
2023-03-06T08:58:00.662Z,80.90
2023-03-06T08:59:00.661Z,80.49
2023-03-06T09:00:00.654Z,81.42
2023-03-06T09:01:00.782Z,81.01
2023-03-06T09:02:00.674Z,82.15
2023-03-06T09:03:00.603Z,80.90
2023-03-06T09:04:00.605Z,80.80
2023-03-06T09:05:00.588Z,81.63
2023-03-06T09:06:00.588Z,81.52
2023-03-06T09:07:00.565Z,81.15
2023-03-06T09:08:00.563Z,80.38
2023-03-06T09:09:00.555Z,79.48
2023-03-06T09:10:00.549Z,79.58
2023-03-06T09:11:00.524Z,78.61
2023-03-06T09:12:00.543Z,80.07
2023-03-06T09:13:00.506Z,80.38
2023-03-06T09:14:00.540Z,79.44
2023-03-06T09:15:00.485Z,79.55
2023-03-06T09:16:00.489Z,77.26
2023-03-06T09:17:00.477Z,77.78
2023-03-06T09:18:00.569Z,78.51
2023-03-06T09:19:00.448Z,79.65
2023-03-06T09:20:00.439Z,78.89
2023-03-06T09:21:00.428Z,77.12
2023-03-06T09:22:00.438Z,77.02
2023-03-06T09:23:00.407Z,76.19
2023-03-06T09:24:00.435Z,76.29
2023-03-06T09:25:00.384Z,77.02
2023-03-06T09:26:00.400Z,76.06
2023-03-06T09:27:00.413Z,76.68
2023-03-06T09:28:11.072Z,76.16
2023-03-06T09:29:01.353Z,75.02
2023-03-06T09:30:00.343Z,74.91
2023-03-06T09:31:00.392Z,75.02
2023-03-06T09:32:00.404Z,74.29
2023-03-06T09:33:00.315Z,74.57
2023-03-06T09:34:00.305Z,74.98
2023-03-06T09:35:00.316Z,76.02
2023-03-06T09:36:00.349Z,74.77
2023-03-06T09:37:00.267Z,74.67
2023-03-06T09:38:00.256Z,76.02
2023-03-06T09:39:00.250Z,74.32
2023-03-06T09:40:00.334Z,74.22
2023-03-06T09:41:00.229Z,74.01
2023-03-06T09:42:00.230Z,75.46
2023-03-06T09:43:00.197Z,75.36
2023-03-06T09:44:00.197Z,74.63
2023-03-06T09:45:00.194Z,77.12
2023-03-06T09:46:00.237Z,78.58
2023-03-06T09:47:00.176Z,78.92
2023-03-06T09:48:00.155Z,77.78
2023-03-06T09:49:00.145Z,76.02
2023-03-06T09:50:00.140Z,77.37
2023-03-06T09:51:00.134Z,80.00
2023-03-06T09:52:00.128Z,81.45
2023-03-06T09:53:00.114Z,82.59
2023-03-06T09:54:00.112Z,83.22
2023-03-06T09:55:00.090Z,84.36
2023-03-06T09:56:00.089Z,84.77
2023-03-06T09:57:00.056Z,85.19
2023-03-06T09:58:00.059Z,85.08
2023-03-06T09:59:00.040Z,84.25
2023-03-06T10:00:02.846Z,84.83
2023-03-06T10:01:00.016Z,84.11
2023-03-06T10:02:00.049Z,82.14
2023-03-06T10:03:00.167Z,82.97
2023-03-06T10:04:00.796Z,83.07
2023-03-06T10:04:59.994Z,83.24
2023-03-06T10:06:02.540Z,83.45
2023-03-06T10:06:59.966Z,82.93
2023-03-06T10:07:59.937Z,82.62
2023-03-06T10:08:59.938Z,83.24
2023-03-06T10:09:59.941Z,83.55
2023-03-06T10:10:59.925Z,82.89
2023-03-06T10:11:59.920Z,82.27
2023-03-06T10:12:59.900Z,82.06
2023-03-06T10:13:59.875Z,82.27
2023-03-06T10:14:59.886Z,81.75
2023-03-06T10:15:59.913Z,81.82
2023-03-06T10:16:59.870Z,80.68
2023-03-06T10:17:59.888Z,80.68
2023-03-06T10:18:59.831Z,81.20
2023-03-06T10:19:59.820Z,80.51
2023-03-06T10:21:10.328Z,81.30
2023-03-06T10:22:00.809Z,81.61
2023-03-06T10:23:03.127Z,81.68
2023-03-06T10:24:00.788Z,81.20
2023-03-06T10:24:59.778Z,81.16
2023-03-06T10:25:59.964Z,80.64
2023-03-06T10:26:59.984Z,80.12
2023-03-06T10:27:59.736Z,79.91
2023-03-06T10:28:59.751Z,79.88
2023-03-06T10:30:03.286Z,77.43
2023-03-06T10:30:59.803Z,77.84
2023-03-06T10:31:59.726Z,77.84
2023-03-06T10:32:59.770Z,78.16
2023-03-06T10:33:59.679Z,77.95
2023-03-06T10:34:59.677Z,78.67
2023-03-06T10:35:59.722Z,79.47
2023-03-06T10:36:59.673Z,78.91
2023-03-06T10:37:59.704Z,79.70
2023-03-06T10:38:59.714Z,78.11
2023-03-06T10:39:59.617Z,76.09
2023-03-06T10:40:59.675Z,76.67
2023-03-06T10:41:59.591Z,75.78
2023-03-06T10:43:11.149Z,76.15
2023-03-06T10:44:00.604Z,75.91
2023-03-06T10:44:59.562Z,76.26
2023-03-06T10:45:59.590Z,75.70
2023-03-06T10:46:59.551Z,75.60
2023-03-06T10:47:59.573Z,74.98
2023-03-06T10:48:59.526Z,74.46
2023-03-06T10:49:59.529Z,74.15
2023-03-06T10:51:01.093Z,73.33
2023-03-06T10:51:59.483Z,73.54
2023-03-06T10:52:59.483Z,71.26
2023-03-06T10:53:59.469Z,70.82
2023-03-06T10:54:59.463Z,72.22
2023-03-06T10:55:59.444Z,73.05
2023-03-06T10:56:59.443Z,72.91
2023-03-06T10:57:59.434Z,73.02
2023-03-06T10:58:59.424Z,72.30
2023-03-06T10:59:59.402Z,71.37
2023-03-06T11:00:59.394Z,71.19
2023-03-06T11:01:59.405Z,71.61
2023-03-06T11:02:59.387Z,71.09
2023-03-06T11:03:59.357Z,70.57
2023-03-06T11:04:59.353Z,69.64
2023-03-06T11:05:59.356Z,69.74
2023-03-06T11:06:59.343Z,72.12
2023-03-06T11:07:59.325Z,71.40
2023-03-06T11:08:59.316Z,72.02
2023-03-06T11:09:59.294Z,71.71
2023-03-06T11:10:59.298Z,72.40
2023-03-06T11:11:59.285Z,71.06
2023-03-06T11:12:59.288Z,69.78
2023-03-06T11:13:59.255Z,68.24
2023-03-06T11:14:59.247Z,68.51
2023-03-06T11:15:59.278Z,66.04
2023-03-06T11:16:59.235Z,66.76
2023-03-06T11:17:59.234Z,68.44
2023-03-06T11:18:59.217Z,68.37
2023-03-06T11:19:59.270Z,68.99
2023-03-06T11:20:59.212Z,69.30
2023-03-06T11:21:59.178Z,69.51
2023-03-06T11:22:59.634Z,71.16
2023-03-06T11:23:59.150Z,69.89
2023-03-06T11:24:59.160Z,69.48
2023-03-06T11:25:59.436Z,69.96
2023-03-06T11:26:59.161Z,68.30
2023-03-06T11:27:59.105Z,67.07
2023-03-06T11:28:59.202Z,68.54
2023-03-06T11:29:59.112Z,67.58
2023-03-06T11:30:59.102Z,66.52
2023-03-06T11:31:59.067Z,66.42
2023-03-06T11:32:59.086Z,67.03
2023-03-06T11:33:59.048Z,66.52
2023-03-06T11:34:59.046Z,66.01
2023-03-06T11:35:59.074Z,66.01
2023-03-06T11:36:59.034Z,66.73
2023-03-06T11:37:59.012Z,66.76
2023-03-06T11:38:59.009Z,67.48
2023-03-06T11:39:58.980Z,66.42
2023-03-06T11:40:59.012Z,64.46
2023-03-06T11:41:58.966Z,63.22
2023-03-06T11:42:58.959Z,64.36
2023-03-06T11:43:58.943Z,64.64
2023-03-06T11:45:00.301Z,67.07
2023-03-06T11:45:58.943Z,67.45
2023-03-06T11:46:59.018Z,68.66
2023-03-06T11:47:58.900Z,67.52
2023-03-06T11:48:58.901Z,65.25
2023-03-06T11:49:58.872Z,65.80
2023-03-06T11:50:58.881Z,65.70
2023-03-06T11:51:58.874Z,64.95
2023-03-06T11:52:58.865Z,65.77
2023-03-06T11:53:58.844Z,66.36
2023-03-06T11:54:58.847Z,63.84
2023-03-06T11:55:58.825Z,65.39
2023-03-06T11:56:58.836Z,67.24
2023-03-06T11:57:58.795Z,66.70
2023-03-06T11:58:58.808Z,65.77
2023-03-06T11:59:58.786Z,66.70
2023-03-06T12:00:58.797Z,65.56
2023-03-06T12:01:58.793Z,64.46
2023-03-06T12:02:58.757Z,64.70
2023-03-06T12:03:58.750Z,65.62
2023-03-06T12:04:58.780Z,66.69
2023-03-06T12:05:58.735Z,66.27
2023-03-06T12:06:58.724Z,66.72
2023-03-06T12:07:58.698Z,68.37
2023-03-06T12:08:58.690Z,68.44
2023-03-06T12:09:58.681Z,66.24
2023-03-06T12:10:58.681Z,65.73
2023-03-06T12:11:58.668Z,65.91
2023-03-06T12:12:58.650Z,67.03
2023-03-06T12:13:59.481Z,68.07
2023-03-06T12:14:58.630Z,65.83
2023-03-06T12:15:58.613Z,65.97
2023-03-06T12:16:58.625Z,67.51
2023-03-06T12:17:58.604Z,67.61
2023-03-06T12:18:58.948Z,67.58
2023-03-06T12:19:58.575Z,67.58
2023-03-06T12:20:58.572Z,69.03
2023-03-06T12:21:58.552Z,69.48
2023-03-06T12:23:14.425Z,70.20
2023-03-06T12:23:59.555Z,70.99
2023-03-06T12:24:58.529Z,70.78
2023-03-06T12:25:58.514Z,69.00
2023-03-06T12:26:58.504Z,69.54
2023-03-06T12:27:58.497Z,68.69
2023-03-06T12:28:58.494Z,67.86
2023-03-06T12:29:58.476Z,67.21
2023-03-06T12:30:58.474Z,67.00
2023-03-06T12:31:58.463Z,66.52
2023-03-06T12:32:58.464Z,66.42
2023-03-06T12:33:58.427Z,66.01
2023-03-06T12:34:58.446Z,67.03
2023-03-06T12:35:58.425Z,66.63
2023-03-06T12:36:58.408Z,65.28
2023-03-06T12:37:58.415Z,66.08
2023-03-06T12:38:58.393Z,66.28
2023-03-06T12:39:58.370Z,67.32
2023-03-06T12:40:58.369Z,66.80
2023-03-06T12:41:58.358Z,67.21
2023-03-06T12:42:58.351Z,66.60
2023-03-06T12:43:59.155Z,66.18
2023-03-06T12:44:58.848Z,65.91
2023-03-06T12:45:58.395Z,66.63
2023-03-06T12:46:58.307Z,66.83
2023-03-06T12:47:58.311Z,65.98
2023-03-06T12:48:58.296Z,65.22
2023-03-06T12:49:58.262Z,65.88
2023-03-06T12:50:58.260Z,67.93
2023-03-06T12:51:58.240Z,67.21